sensor_id;sensor_type;location;lat;lon;timestamp;pressure;altitude;pressure_sealevel;temperature;humidity
7168;BME280;3625;51.762;14.320;2023-04-05T00:01:32;101509.69;;;0.28;92.81
7168;BME280;3625;51.762;14.320;2023-04-05T00:04:03;101506.66;;;0.16;92.76
7168;BME280;3625;51.762;14.320;2023-04-05T00:06:34;101502.06;;;0.09;93.79
7168;BME280;3625;51.762;14.320;2023-04-05T00:09:04;101506.94;;;-0.01;93.43
7168;BME280;3625;51.762;14.320;2023-04-05T00:11:33;101501.47;;;-0.07;94.24
7168;BME280;3625;51.762;14.320;2023-04-05T00:14:02;101504.69;;;-0.14;96.86
7168;BME280;3625;51.762;14.320;2023-04-05T00:16:31;101510.47;;;-0.21;95.15
7168;BME280;3625;51.762;14.320;2023-04-05T00:19:01;101512.94;;;-0.24;95.22
7168;BME280;3625;51.762;14.320;2023-04-05T00:21:31;101503.44;;;-0.23;95.19
7168;BME280;3625;51.762;14.320;2023-04-05T00:24:00;101407.47;;;-0.86;95.14
7168;BME280;3625;51.762;14.320;2023-04-05T00:26:29;101497.81;;;-0.34;96.17
7168;BME280;3625;51.762;14.320;2023-04-05T00:28:57;101498.56;;;-0.38;94.96
7168;BME280;3625;51.762;14.320;2023-04-05T00:31:27;101500.97;;;-0.43;95.35
7168;BME280;3625;51.762;14.320;2023-04-05T00:33:56;101500.84;;;-0.46;97.38
7168;BME280;3625;51.762;14.320;2023-04-05T00:36:26;101504.94;;;-0.52;96.22
7168;BME280;3625;51.762;14.320;2023-04-05T00:38:54;101502.88;;;-0.61;96.46
7168;BME280;3625;51.762;14.320;2023-04-05T00:41:23;101503.25;;;-0.50;100.00
7168;BME280;3625;51.762;14.320;2023-04-05T00:43:52;101501.63;;;-0.48;99.00
7168;BME280;3625;51.762;14.320;2023-04-05T00:46:20;101498.25;;;-0.46;98.42
7168;BME280;3625;51.762;14.320;2023-04-05T00:48:49;101501.75;;;-0.45;98.78
7168;BME280;3625;51.762;14.320;2023-04-05T00:51:18;101496.78;;;-0.39;100.00
7168;BME280;3625;51.762;14.320;2023-04-05T00:53:48;101503.03;;;-0.34;100.00
7168;BME280;3625;51.762;14.320;2023-04-05T00:56:19;101485.97;;;-0.27;100.00
7168;BME280;3625;51.762;14.320;2023-04-05T00:58:49;101485.09;;;-0.28;100.00
7168;BME280;3625;51.762;14.320;2023-04-05T01:01:21;101477.88;;;-0.35;100.00
7168;BME280;3625;51.762;14.320;2023-04-05T01:03:56;101480.28;;;-0.40;100.00
7168;BME280;3625;51.762;14.320;2023-04-05T01:06:55;101478.44;;;-0.42;100.00
7168;BME280;3625;51.762;14.320;2023-04-05T01:09:47;101436.31;;;-0.80;100.00
7168;BME280;3625;51.762;14.320;2023-04-05T01:12:26;101478.09;;;-0.51;100.00
7168;BME280;3625;51.762;14.320;2023-04-05T01:14:55;101483.25;;;-0.53;100.00
7168;BME280;3625;51.762;14.320;2023-04-05T01:17:28;101476.38;;;-0.51;100.00
7168;BME280;3625;51.762;14.320;2023-04-05T01:20:05;101480.47;;;-0.57;100.00
7168;BME280;3625;51.762;14.320;2023-04-05T01:23:11;101433.44;;;-0.86;100.00
7168;BME280;3625;51.762;14.320;2023-04-05T01:26:30;101461.09;;;-0.65;100.00
7168;BME280;3625;51.762;14.320;2023-04-05T01:29:38;101414.06;;;-0.94;100.00
7168;BME280;3625;51.762;14.320;2023-04-05T01:32:26;101450.81;;;-0.85;100.00
7168;BME280;3625;51.762;14.320;2023-04-05T01:35:08;101417.63;;;-1.14;100.00
7168;BME280;3625;51.762;14.320;2023-04-05T01:37:40;101457.69;;;-1.07;100.00
7168;BME280;3625;51.762;14.320;2023-04-05T01:40:11;101455.28;;;-1.24;100.00
7168;BME280;3625;51.762;14.320;2023-04-05T01:42:43;101463.00;;;-1.25;100.00
7168;BME280;3625;51.762;14.320;2023-04-05T01:45:14;101457.13;;;-1.21;100.00
7168;BME280;3625;51.762;14.320;2023-04-05T01:47:43;101465.09;;;-1.17;100.00
7168;BME280;3625;51.762;14.320;2023-04-05T01:50:12;101462.66;;;-1.12;100.00
7168;BME280;3625;51.762;14.320;2023-04-05T01:52:41;101462.63;;;-1.13;100.00
7168;BME280;3625;51.762;14.320;2023-04-05T01:55:10;101463.25;;;-1.19;100.00
7168;BME280;3625;51.762;14.320;2023-04-05T01:57:38;101458.56;;;-1.28;100.00
7168;BME280;3625;51.762;14.320;2023-04-05T02:00:08;101461.06;;;-1.31;100.00
7168;BME280;3625;51.762;14.320;2023-04-05T02:02:42;101421.69;;;-1.41;100.00
7168;BME280;3625;51.762;14.320;2023-04-05T02:05:11;101457.25;;;-1.18;100.00
7168;BME280;3625;51.762;14.320;2023-04-05T02:07:40;101454.41;;;-1.24;100.00
7168;BME280;3625;51.762;14.320;2023-04-05T02:10:09;101453.44;;;-1.26;100.00
7168;BME280;3625;51.762;14.320;2023-04-05T02:12:39;101461.22;;;-1.26;100.00
7168;BME280;3625;51.762;14.320;2023-04-05T02:15:09;101467.00;;;-1.33;100.00
7168;BME280;3625;51.762;14.320;2023-04-05T02:17:38;101453.28;;;-1.31;100.00
7168;BME280;3625;51.762;14.320;2023-04-05T02:20:14;101451.56;;;-1.30;100.00
7168;BME280;3625;51.762;14.320;2023-04-05T02:22:43;101446.22;;;-1.33;100.00
7168;BME280;3625;51.762;14.320;2023-04-05T02:25:12;101461.56;;;-1.39;100.00
7168;BME280;3625;51.762;14.320;2023-04-05T02:27:41;101459.50;;;-1.46;100.00
7168;BME280;3625;51.762;14.320;2023-04-05T02:30:11;101457.63;;;-1.50;100.00
7168;BME280;3625;51.762;14.320;2023-04-05T02:32:41;101456.50;;;-1.56;100.00
7168;BME280;3625;51.762;14.320;2023-04-05T02:35:11;101420.19;;;-1.76;100.00
7168;BME280;3625;51.762;14.320;2023-04-05T02:37:40;101437.94;;;-1.66;100.00
7168;BME280;3625;51.762;14.320;2023-04-05T02:40:13;101451.00;;;-1.63;100.00
7168;BME280;3625;51.762;14.320;2023-04-05T02:42:42;101447.41;;;-1.67;100.00
7168;BME280;3625;51.762;14.320;2023-04-05T02:45:10;101449.94;;;-1.68;100.00
7168;BME280;3625;51.762;14.320;2023-04-05T02:47:39;101429.75;;;-1.75;100.00
7168;BME280;3625;51.762;14.320;2023-04-05T02:50:08;101447.66;;;-1.61;100.00
7168;BME280;3625;51.762;14.320;2023-04-05T02:52:43;101447.53;;;-1.64;100.00
7168;BME280;3625;51.762;14.320;2023-04-05T02:55:12;101442.97;;;-1.69;100.00
7168;BME280;3625;51.762;14.320;2023-04-05T02:57:42;101445.44;;;-1.72;100.00
7168;BME280;3625;51.762;14.320;2023-04-05T03:00:36;101438.53;;;-1.72;100.00
7168;BME280;3625;51.762;14.320;2023-04-05T03:03:07;101440.44;;;-1.68;100.00
7168;BME280;3625;51.762;14.320;2023-04-05T03:05:39;101443.22;;;-1.63;100.00
7168;BME280;3625;51.762;14.320;2023-04-05T03:08:14;101440.53;;;-1.66;100.00
7168;BME280;3625;51.762;14.320;2023-04-05T03:10:56;101436.09;;;-1.69;100.00
7168;BME280;3625;51.762;14.320;2023-04-05T03:13:25;101437.72;;;-1.71;100.00
7168;BME280;3625;51.762;14.320;2023-04-05T03:15:57;101435.81;;;-1.75;100.00
7168;BME280;3625;51.762;14.320;2023-04-05T03:18:28;101439.91;;;-1.80;100.00
7168;BME280;3625;51.762;14.320;2023-04-05T03:21:04;101433.91;;;-1.79;100.00
7168;BME280;3625;51.762;14.320;2023-04-05T03:23:50;101385.38;;;-2.02;100.00
7168;BME280;3625;51.762;14.320;2023-04-05T03:26:25;101433.63;;;-1.66;100.00
7168;BME280;3625;51.762;14.320;2023-04-05T03:28:54;101435.09;;;-1.52;100.00
7168;BME280;3625;51.762;14.320;2023-04-05T03:31:30;101429.91;;;-1.52;100.00
7168;BME280;3625;51.762;14.320;2023-04-05T03:34:03;101421.09;;;-1.55;100.00
7168;BME280;3625;51.762;14.320;2023-04-05T03:36:41;101342.94;;;-2.04;100.00
7168;BME280;3625;51.762;14.320;2023-04-05T03:39:29;101419.19;;;-1.59;100.00
7168;BME280;3625;51.762;14.320;2023-04-05T03:41:58;101400.72;;;-1.67;100.00
7168;BME280;3625;51.762;14.320;2023-04-05T03:44:28;101417.34;;;-1.62;100.00
7168;BME280;3625;51.762;14.320;2023-04-05T03:46:57;101361.47;;;-1.95;100.00
7168;BME280;3625;51.762;14.320;2023-04-05T03:49:26;101425.13;;;-1.62;100.00
7168;BME280;3625;51.762;14.320;2023-04-05T03:51:55;101415.16;;;-1.53;100.00
7168;BME280;3625;51.762;14.320;2023-04-05T03:54:23;101414.56;;;-1.45;100.00
7168;BME280;3625;51.762;14.320;2023-04-05T03:56:57;101413.44;;;-1.52;100.00
7168;BME280;3625;51.762;14.320;2023-04-05T03:59:28;101415.56;;;-1.63;100.00
7168;BME280;3625;51.762;14.320;2023-04-05T04:02:00;101409.47;;;-1.65;100.00
7168;BME280;3625;51.762;14.320;2023-04-05T04:04:29;101420.16;;;-1.57;100.00
7168;BME280;3625;51.762;14.320;2023-04-05T04:06:59;101429.97;;;-1.50;100.00
7168;BME280;3625;51.762;14.320;2023-04-05T04:09:29;101425.22;;;-1.39;100.00
7168;BME280;3625;51.762;14.320;2023-04-05T04:12:06;101422.28;;;-1.26;100.00
7168;BME280;3625;51.762;14.320;2023-04-05T04:14:41;101427.09;;;-1.15;100.00
7168;BME280;3625;51.762;14.320;2023-04-05T04:17:30;101409.81;;;-1.14;100.00
7168;BME280;3625;51.762;14.320;2023-04-05T04:20:14;101419.09;;;-0.98;100.00
7168;BME280;3625;51.762;14.320;2023-04-05T04:23:12;101423.63;;;-0.93;100.00
7168;BME280;3625;51.762;14.320;2023-04-05T04:25:50;101426.25;;;-0.93;100.00
7168;BME280;3625;51.762;14.320;2023-04-05T04:28:49;101424.59;;;-0.91;100.00
7168;BME280;3625;51.762;14.320;2023-04-05T04:31:22;101424.72;;;-0.88;100.00
7168;BME280;3625;51.762;14.320;2023-04-05T04:34:09;101426.72;;;-0.81;100.00
7168;BME280;3625;51.762;14.320;2023-04-05T04:36:45;101421.75;;;-0.74;100.00
7168;BME280;3625;51.762;14.320;2023-04-05T04:39:37;101428.97;;;-0.67;100.00
7168;BME280;3625;51.762;14.320;2023-04-05T04:42:34;101424.03;;;-0.61;100.00
7168;BME280;3625;51.762;14.320;2023-04-05T04:45:33;101426.09;;;-0.53;100.00
7168;BME280;3625;51.762;14.320;2023-04-05T04:48:40;101423.84;;;-0.44;100.00
7168;BME280;3625;51.762;14.320;2023-04-05T04:51:44;101437.94;;;-0.37;100.00
7168;BME280;3625;51.762;14.320;2023-04-05T04:54:13;101433.78;;;-0.32;100.00
7168;BME280;3625;51.762;14.320;2023-04-05T04:56:43;101434.13;;;-0.23;100.00
7168;BME280;3625;51.762;14.320;2023-04-05T04:59:11;101381.50;;;-0.40;100.00
7168;BME280;3625;51.762;14.320;2023-04-05T05:01:44;101439.19;;;-0.04;100.00
7168;BME280;3625;51.762;14.320;2023-04-05T05:04:13;101436.84;;;0.04;100.00
7168;BME280;3625;51.762;14.320;2023-04-05T05:06:42;101431.91;;;0.12;100.00
7168;BME280;3625;51.762;14.320;2023-04-05T05:09:11;101426.09;;;0.19;100.00
7168;BME280;3625;51.762;14.320;2023-04-05T05:11:48;101430.72;;;0.27;100.00
7168;BME280;3625;51.762;14.320;2023-04-05T05:14:16;101429.28;;;0.35;100.00
7168;BME280;3625;51.762;14.320;2023-04-05T05:16:46;101396.91;;;0.27;100.00
7168;BME280;3625;51.762;14.320;2023-04-05T05:19:17;101427.31;;;0.54;100.00
7168;BME280;3625;51.762;14.320;2023-04-05T05:21:49;101423.41;;;0.66;100.00
7168;BME280;3625;51.762;14.320;2023-04-05T05:24:19;101408.81;;;0.71;100.00
7168;BME280;3625;51.762;14.320;2023-04-05T05:26:48;101428.63;;;0.93;100.00
7168;BME280;3625;51.762;14.320;2023-04-05T05:29:18;101433.19;;;1.00;100.00
7168;BME280;3625;51.762;14.320;2023-04-05T05:31:50;101419.41;;;1.04;100.00
7168;BME280;3625;51.762;14.320;2023-04-05T05:34:19;101434.63;;;1.18;100.00
7168;BME280;3625;51.762;14.320;2023-04-05T05:36:57;101429.53;;;1.22;100.00
7168;BME280;3625;51.762;14.320;2023-04-05T05:39:26;101432.13;;;1.21;100.00
7168;BME280;3625;51.762;14.320;2023-04-05T05:41:54;101435.09;;;1.33;100.00
7168;BME280;3625;51.762;14.320;2023-04-05T05:44:23;101437.88;;;1.39;100.00
7168;BME280;3625;51.762;14.320;2023-04-05T05:46:53;101391.19;;;1.18;100.00
7168;BME280;3625;51.762;14.320;2023-04-05T05:49:22;101439.13;;;1.51;100.00
7168;BME280;3625;51.762;14.320;2023-04-05T05:51:51;101441.84;;;1.55;100.00
7168;BME280;3625;51.762;14.320;2023-04-05T05:54:20;101434.09;;;1.58;100.00
7168;BME280;3625;51.762;14.320;2023-04-05T05:56:48;101434.28;;;1.64;100.00
7168;BME280;3625;51.762;14.320;2023-04-05T05:59:17;101431.19;;;1.77;100.00
7168;BME280;3625;51.762;14.320;2023-04-05T06:01:46;101423.78;;;1.92;100.00
7168;BME280;3625;51.762;14.320;2023-04-05T06:04:16;101427.91;;;2.14;100.00
7168;BME280;3625;51.762;14.320;2023-04-05T06:07:10;101424.16;;;2.37;100.00
7168;BME280;3625;51.762;14.320;2023-04-05T06:09:40;101429.75;;;2.51;100.00
7168;BME280;3625;51.762;14.320;2023-04-05T06:12:08;101422.09;;;2.57;100.00
7168;BME280;3625;51.762;14.320;2023-04-05T06:14:37;101423.91;;;2.59;98.60
7168;BME280;3625;51.762;14.320;2023-04-05T06:17:05;101423.97;;;2.62;97.33
7168;BME280;3625;51.762;14.320;2023-04-05T06:19:35;101431.94;;;2.67;95.44
7168;BME280;3625;51.762;14.320;2023-04-05T06:22:04;101431.16;;;2.71;94.72
7168;BME280;3625;51.762;14.320;2023-04-05T06:24:32;101427.03;;;2.81;94.27
7168;BME280;3625;51.762;14.320;2023-04-05T06:27:01;101424.66;;;2.90;93.93
7168;BME280;3625;51.762;14.320;2023-04-05T06:29:30;101429.44;;;3.08;93.69
7168;BME280;3625;51.762;14.320;2023-04-05T06:31:58;101422.06;;;3.29;93.39
7168;BME280;3625;51.762;14.320;2023-04-05T06:34:28;101419.66;;;3.38;92.24
7168;BME280;3625;51.762;14.320;2023-04-05T06:36:57;101417.97;;;3.40;90.71
7168;BME280;3625;51.762;14.320;2023-04-05T06:39:26;101414.56;;;3.42;90.83
7168;BME280;3625;51.762;14.320;2023-04-05T06:41:55;101412.88;;;3.45;88.93
7168;BME280;3625;51.762;14.320;2023-04-05T06:44:28;101418.81;;;3.39;86.28
7168;BME280;3625;51.762;14.320;2023-04-05T06:46:56;101415.41;;;3.41;86.42
7168;BME280;3625;51.762;14.320;2023-04-05T06:49:25;101413.22;;;3.61;86.68
7168;BME280;3625;51.762;14.320;2023-04-05T06:51:54;101412.00;;;3.86;85.99
7168;BME280;3625;51.762;14.320;2023-04-05T06:54:23;101421.81;;;3.96;84.62
7168;BME280;3625;51.762;14.320;2023-04-05T06:56:52;101427.97;;;4.00;82.46
7168;BME280;3625;51.762;14.320;2023-04-05T06:59:23;101421.84;;;3.98;81.15
7168;BME280;3625;51.762;14.320;2023-04-05T07:01:52;101424.47;;;3.99;80.68
7168;BME280;3625;51.762;14.320;2023-04-05T07:04:21;101426.31;;;4.03;81.13
7168;BME280;3625;51.762;14.320;2023-04-05T07:06:49;101424.81;;;4.17;80.94
7168;BME280;3625;51.762;14.320;2023-04-05T07:09:18;101414.63;;;4.31;80.92
7168;BME280;3625;51.762;14.320;2023-04-05T07:11:49;101419.19;;;4.43;81.18
7168;BME280;3625;51.762;14.320;2023-04-05T07:14:18;101419.47;;;4.58;79.55
7168;BME280;3625;51.762;14.320;2023-04-05T07:16:47;101415.41;;;4.77;77.15
7168;BME280;3625;51.762;14.320;2023-04-05T07:19:16;101421.81;;;4.92;75.96
7168;BME280;3625;51.762;14.320;2023-04-05T07:21:45;101430.81;;;5.10;72.56
7168;BME280;3625;51.762;14.320;2023-04-05T07:24:14;101430.25;;;5.30;73.35
7168;BME280;3625;51.762;14.320;2023-04-05T07:26:42;101434.00;;;5.48;70.16
7168;BME280;3625;51.762;14.320;2023-04-05T07:29:12;101430.72;;;5.64;68.24
7168;BME280;3625;51.762;14.320;2023-04-05T07:31:42;101427.28;;;5.68;64.28
7168;BME280;3625;51.762;14.320;2023-04-05T07:34:11;101436.97;;;5.74;62.98
7168;BME280;3625;51.762;14.320;2023-04-05T07:36:40;101430.78;;;5.67;60.85
7168;BME280;3625;51.762;14.320;2023-04-05T07:39:09;101425.84;;;5.91;62.18
7168;BME280;3625;51.762;14.320;2023-04-05T07:41:37;101422.66;;;6.17;61.36
7168;BME280;3625;51.762;14.320;2023-04-05T07:44:09;101421.16;;;6.40;61.42
7168;BME280;3625;51.762;14.320;2023-04-05T07:46:39;101419.66;;;6.66;62.29
7168;BME280;3625;51.762;14.320;2023-04-05T07:49:14;101432.97;;;6.86;60.33
7168;BME280;3625;51.762;14.320;2023-04-05T07:51:43;101424.44;;;7.14;60.36
7168;BME280;3625;51.762;14.320;2023-04-05T07:54:12;101424.50;;;7.22;58.47
7168;BME280;3625;51.762;14.320;2023-04-05T07:56:41;101428.84;;;7.20;56.27
7168;BME280;3625;51.762;14.320;2023-04-05T07:59:10;101433.25;;;7.19;55.21
7168;BME280;3625;51.762;14.320;2023-04-05T08:01:42;101419.25;;;7.24;54.22
7168;BME280;3625;51.762;14.320;2023-04-05T08:04:11;101434.28;;;7.41;53.72
7168;BME280;3625;51.762;14.320;2023-04-05T08:06:40;101429.97;;;7.55;53.78
7168;BME280;3625;51.762;14.320;2023-04-05T08:09:10;101437.09;;;7.75;53.62
7168;BME280;3625;51.762;14.320;2023-04-05T08:11:38;101437.19;;;7.94;52.35
7168;BME280;3625;51.762;14.320;2023-04-05T08:14:08;101437.25;;;8.08;51.55
7168;BME280;3625;51.762;14.320;2023-04-05T08:16:36;101430.22;;;8.07;50.36
7168;BME280;3625;51.762;14.320;2023-04-05T08:19:06;101432.94;;;8.31;51.52
7168;BME280;3625;51.762;14.320;2023-04-05T08:21:35;101435.59;;;8.41;49.42
7168;BME280;3625;51.762;14.320;2023-04-05T08:24:04;101439.94;;;8.20;50.93
7168;BME280;3625;51.762;14.320;2023-04-05T08:26:32;101421.38;;;7.87;50.80
7168;BME280;3625;51.762;14.320;2023-04-05T08:29:01;101437.88;;;7.57;51.04
7168;BME280;3625;51.762;14.320;2023-04-05T08:31:30;101429.84;;;7.34;51.16
7168;BME280;3625;51.762;14.320;2023-04-05T08:34:00;101433.25;;;7.19;51.27
7168;BME280;3625;51.762;14.320;2023-04-05T08:36:30;101429.63;;;7.04;50.51
7168;BME280;3625;51.762;14.320;2023-04-05T08:38:58;101433.09;;;7.01;50.40
7168;BME280;3625;51.762;14.320;2023-04-05T08:41:34;101431.34;;;7.02;50.87
7168;BME280;3625;51.762;14.320;2023-04-05T08:44:04;101439.09;;;6.85;50.07
7168;BME280;3625;51.762;14.320;2023-04-05T08:46:34;101432.16;;;6.93;49.82
7168;BME280;3625;51.762;14.320;2023-04-05T08:49:05;101400.59;;;6.92;49.08
7168;BME280;3625;51.762;14.320;2023-04-05T08:51:37;101437.63;;;7.19;48.66
7168;BME280;3625;51.762;14.320;2023-04-05T08:54:06;101430.78;;;7.45;48.86
7168;BME280;3625;51.762;14.320;2023-04-05T08:56:36;101435.38;;;7.83;48.00
7168;BME280;3625;51.762;14.320;2023-04-05T08:59:08;101437.25;;;8.04;47.28
7168;BME280;3625;51.762;14.320;2023-04-05T09:01:41;101407.38;;;8.08;46.59
7168;BME280;3625;51.762;14.320;2023-04-05T09:04:15;101431.13;;;8.23;46.40
7168;BME280;3625;51.762;14.320;2023-04-05T09:06:48;101436.50;;;8.49;46.28
7168;BME280;3625;51.762;14.320;2023-04-05T09:09:19;101365.94;;;7.66;45.59
7168;BME280;3625;51.762;14.320;2023-04-05T09:11:49;101415.25;;;7.95;45.99
7168;BME280;3625;51.762;14.320;2023-04-05T09:14:19;101435.50;;;8.04;46.04
7168;BME280;3625;51.762;14.320;2023-04-05T09:16:48;101431.94;;;8.01;46.43
7168;BME280;3625;51.762;14.320;2023-04-05T09:19:17;101431.09;;;8.09;46.69
7168;BME280;3625;51.762;14.320;2023-04-05T09:22:00;101382.78;;;8.10;46.23
7168;BME280;3625;51.762;14.320;2023-04-05T09:24:36;101437.44;;;8.99;45.71
7168;BME280;3625;51.762;14.320;2023-04-05T09:27:09;101439.19;;;9.20;45.05
7168;BME280;3625;51.762;14.320;2023-04-05T09:29:42;101438.31;;;9.11;45.02
7168;BME280;3625;51.762;14.320;2023-04-05T09:32:12;101433.03;;;8.83;45.82
7168;BME280;3625;51.762;14.320;2023-04-05T09:34:42;101433.91;;;9.32;45.18
7168;BME280;3625;51.762;14.320;2023-04-05T09:37:50;101445.31;;;9.36;44.42
7168;BME280;3625;51.762;14.320;2023-04-05T09:40:23;101433.94;;;9.06;44.85
7168;BME280;3625;51.762;14.320;2023-04-05T09:42:52;101440.97;;;9.24;45.25
7168;BME280;3625;51.762;14.320;2023-04-05T09:45:20;101432.00;;;9.80;45.32
7168;BME280;3625;51.762;14.320;2023-04-05T09:47:55;101433.31;;;10.74;45.60
7168;BME280;3625;51.762;14.320;2023-04-05T09:50:24;101448.34;;;10.67;41.62
7168;BME280;3625;51.762;14.320;2023-04-05T09:53:08;101436.19;;;10.39;42.87
7168;BME280;3625;51.762;14.320;2023-04-05T09:55:37;101358.19;;;9.36;43.74
7168;BME280;3625;51.762;14.320;2023-04-05T09:58:11;101437.16;;;10.13;43.13
7168;BME280;3625;51.762;14.320;2023-04-05T10:00:48;101434.50;;;10.21;43.28
7168;BME280;3625;51.762;14.320;2023-04-05T10:03:45;101439.09;;;9.70;43.75
7168;BME280;3625;51.762;14.320;2023-04-05T10:06:15;101435.69;;;8.71;45.98
7168;BME280;3625;51.762;14.320;2023-04-05T10:08:46;101438.16;;;8.22;48.06
7168;BME280;3625;51.762;14.320;2023-04-05T10:11:17;101427.56;;;8.07;50.14
7168;BME280;3625;51.762;14.320;2023-04-05T10:13:48;101424.25;;;8.87;48.61
7168;BME280;3625;51.762;14.320;2023-04-05T10:16:22;101418.94;;;9.27;48.06
7168;BME280;3625;51.762;14.320;2023-04-05T10:18:53;101412.69;;;9.63;47.43
7168;BME280;3625;51.762;14.320;2023-04-05T10:21:27;101412.66;;;9.70;46.73
7168;BME280;3625;51.762;14.320;2023-04-05T10:24:17;101414.53;;;9.30;47.62
7168;BME280;3625;51.762;14.320;2023-04-05T10:26:58;101418.91;;;9.51;47.81
7168;BME280;3625;51.762;14.320;2023-04-05T10:29:44;101411.03;;;9.31;46.90
7168;BME280;3625;51.762;14.320;2023-04-05T10:32:29;101405.75;;;9.31;47.83
7168;BME280;3625;51.762;14.320;2023-04-05T10:35:09;101411.88;;;9.36;47.40
7168;BME280;3625;51.762;14.320;2023-04-05T10:37:54;101369.63;;;9.41;47.59
7168;BME280;3625;51.762;14.320;2023-04-05T10:40:32;101402.78;;;10.13;47.15
7168;BME280;3625;51.762;14.320;2023-04-05T10:43:06;101399.19;;;10.36;45.77
7168;BME280;3625;51.762;14.320;2023-04-05T10:45:43;101373.88;;;9.78;45.45
7168;BME280;3625;51.762;14.320;2023-04-05T10:48:21;101401.31;;;9.41;46.48
7168;BME280;3625;51.762;14.320;2023-04-05T10:50:53;101380.28;;;8.73;47.67
7168;BME280;3625;51.762;14.320;2023-04-05T10:53:22;101399.59;;;8.37;49.02
7168;BME280;3625;51.762;14.320;2023-04-05T10:55:56;101410.84;;;7.96;54.47
7168;BME280;3625;51.762;14.320;2023-04-05T10:58:25;101398.31;;;7.43;65.41
7168;BME280;3625;51.762;14.320;2023-04-05T11:00:55;101331.22;;;6.77;70.01
7168;BME280;3625;51.762;14.320;2023-04-05T11:03:47;101342.72;;;6.90;72.67
7168;BME280;3625;51.762;14.320;2023-04-05T11:06:22;101374.44;;;7.14;71.70
7168;BME280;3625;51.762;14.320;2023-04-05T11:08:57;101340.97;;;6.89;73.09
7168;BME280;3625;51.762;14.320;2023-04-05T11:11:38;101365.53;;;6.96;73.52
7168;BME280;3625;51.762;14.320;2023-04-05T11:14:20;101319.81;;;6.72;73.93
7168;BME280;3625;51.762;14.320;2023-04-05T11:16:51;101354.25;;;7.12;73.79
7168;BME280;3625;51.762;14.320;2023-04-05T11:19:47;101351.00;;;7.58;71.14
7168;BME280;3625;51.762;14.320;2023-04-05T11:22:26;101339.81;;;8.51;65.19
7168;BME280;3625;51.762;14.320;2023-04-05T11:24:56;101360.00;;;9.14;60.05
7168;BME280;3625;51.762;14.320;2023-04-05T11:27:31;101326.63;;;8.87;58.73
7168;BME280;3625;51.762;14.320;2023-04-05T11:30:01;101355.63;;;9.02;57.51
7168;BME280;3625;51.762;14.320;2023-04-05T11:32:41;101360.00;;;9.13;54.16
7168;BME280;3625;51.762;14.320;2023-04-05T11:35:14;101366.19;;;8.78;53.44
7168;BME280;3625;51.762;14.320;2023-04-05T11:38:06;101367.09;;;8.73;54.66
7168;BME280;3625;51.762;14.320;2023-04-05T11:40:37;101359.16;;;8.74;52.73
7168;BME280;3625;51.762;14.320;2023-04-05T11:43:10;101348.63;;;8.45;53.06
7168;BME280;3625;51.762;14.320;2023-04-05T11:45:41;101365.31;;;8.44;53.61
7168;BME280;3625;51.762;14.320;2023-04-05T11:48:11;101353.81;;;8.19;52.55
7168;BME280;3625;51.762;14.320;2023-04-05T11:50:40;101329.28;;;8.39;52.20
7168;BME280;3625;51.762;14.320;2023-04-05T11:53:11;101367.06;;;8.88;48.78
7168;BME280;3625;51.762;14.320;2023-04-05T11:55:42;101376.75;;;8.70;48.77
7168;BME280;3625;51.762;14.320;2023-04-05T11:58:13;101366.19;;;8.75;47.65
7168;BME280;3625;51.762;14.320;2023-04-05T12:00:43;101368.84;;;8.60;48.58
7168;BME280;3625;51.762;14.320;2023-04-05T12:03:12;101374.00;;;8.08;46.61
7168;BME280;3625;51.762;14.320;2023-04-05T12:05:47;101346.66;;;7.73;47.91
7168;BME280;3625;51.762;14.320;2023-04-05T12:08:16;101352.88;;;7.96;48.07
7168;BME280;3625;51.762;14.320;2023-04-05T12:10:52;101314.25;;;8.03;47.60
7168;BME280;3625;51.762;14.320;2023-04-05T12:13:27;101360.03;;;8.44;47.16
7168;BME280;3625;51.762;14.320;2023-04-05T12:15:57;101364.44;;;8.82;45.93
7168;BME280;3625;51.762;14.320;2023-04-05T12:18:29;101333.59;;;9.22;45.06
7168;BME280;3625;51.762;14.320;2023-04-05T12:21:00;101279.94;;;9.00;45.08
7168;BME280;3625;51.762;14.320;2023-04-05T12:23:33;101352.97;;;9.08;45.22
7168;BME280;3625;51.762;14.320;2023-04-05T12:26:05;101342.44;;;8.98;45.90
7168;BME280;3625;51.762;14.320;2023-04-05T12:28:52;101349.47;;;8.94;45.94
7168;BME280;3625;51.762;14.320;2023-04-05T12:31:38;101313.44;;;8.42;45.46
7168;BME280;3625;51.762;14.320;2023-04-05T12:34:08;101313.44;;;8.42;45.79
7168;BME280;3625;51.762;14.320;2023-04-05T12:36:43;101340.72;;;8.71;46.14
7168;BME280;3625;51.762;14.320;2023-04-05T12:39:15;101343.31;;;8.86;45.68
7168;BME280;3625;51.762;14.320;2023-04-05T12:41:44;101338.91;;;8.84;45.62
7168;BME280;3625;51.762;14.320;2023-04-05T12:44:30;101327.47;;;8.19;47.56
7168;BME280;3625;51.762;14.320;2023-04-05T12:47:02;101322.22;;;8.28;45.34
7168;BME280;3625;51.762;14.320;2023-04-05T12:49:36;101313.44;;;8.48;44.96
7168;BME280;3625;51.762;14.320;2023-04-05T12:52:05;101333.69;;;8.46;44.41
7168;BME280;3625;51.762;14.320;2023-04-05T12:54:34;101332.75;;;8.74;44.22
7168;BME280;3625;51.762;14.320;2023-04-05T12:57:03;101330.16;;;8.71;44.44
7168;BME280;3625;51.762;14.320;2023-04-05T12:59:36;101336.31;;;8.70;44.45
7168;BME280;3625;51.762;14.320;2023-04-05T13:02:07;101335.41;;;8.65;45.07
7168;BME280;3625;51.762;14.320;2023-04-05T13:04:35;101338.00;;;8.21;44.95
7168;BME280;3625;51.762;14.320;2023-04-05T13:07:04;101337.13;;;8.13;45.06
7168;BME280;3625;51.762;14.320;2023-04-05T13:09:33;101334.47;;;8.04;45.17
7168;BME280;3625;51.762;14.320;2023-04-05T13:12:03;101319.47;;;7.75;45.24
7168;BME280;3625;51.762;14.320;2023-04-05T13:14:33;101340.50;;;7.69;45.86
7168;BME280;3625;51.762;14.320;2023-04-05T13:17:03;101327.28;;;7.55;46.43
7168;BME280;3625;51.762;14.320;2023-04-05T13:19:34;101331.72;;;7.72;45.74
7168;BME280;3625;51.762;14.320;2023-04-05T13:22:03;101325.63;;;7.88;45.20
7168;BME280;3625;51.762;14.320;2023-04-05T13:24:32;101325.69;;;8.15;44.94
7168;BME280;3625;51.762;14.320;2023-04-05T13:27:00;101323.03;;;8.05;46.26
7168;BME280;3625;51.762;14.320;2023-04-05T13:29:29;101328.16;;;7.56;47.21
7168;BME280;3625;51.762;14.320;2023-04-05T13:31:57;101328.16;;;7.56;47.59
7168;BME280;3625;51.762;14.320;2023-04-05T13:34:27;101329.84;;;7.34;48.14